sensor_id;sensor_type;location;lat;lon;timestamp;pressure;altitude;pressure_sealevel;temperature;humidity
64827;BME280;51265;53.972;12.286;2023-06-22T00:00:50;101266.72;;;14.54;100.00
64827;BME280;51265;53.972;12.286;2023-06-22T00:03:20;101264.63;;;14.45;100.00
64827;BME280;51265;53.972;12.286;2023-06-22T00:05:47;101263.31;;;14.43;100.00
64827;BME280;51265;53.972;12.286;2023-06-22T00:08:14;101259.72;;;14.42;100.00
64827;BME280;51265;53.972;12.286;2023-06-22T00:10:40;101263.31;;;14.43;100.00
64827;BME280;51265;53.972;12.286;2023-06-22T00:13:21;101260.56;;;14.43;100.00
64827;BME280;51265;53.972;12.286;2023-06-22T00:15:47;101257.78;;;14.43;100.00
64827;BME280;51265;53.972;12.286;2023-06-22T00:18:13;101258.06;;;14.41;100.00
64827;BME280;51265;53.972;12.286;2023-06-22T00:20:41;101258.06;;;14.41;100.00
64827;BME280;51265;53.972;12.286;2023-06-22T00:23:07;101263.13;;;14.39;100.00
64827;BME280;51265;53.972;12.286;2023-06-22T00:25:38;101263.59;;;14.41;100.00
64827;BME280;51265;53.972;12.286;2023-06-22T00:28:06;101267.53;;;14.40;100.00
64827;BME280;51265;53.972;12.286;2023-06-22T00:30:34;101261.97;;;14.40;100.00
64827;BME280;51265;53.972;12.286;2023-06-22T00:33:00;101265.88;;;14.39;100.00
64827;BME280;51265;53.972;12.286;2023-06-22T00:35:27;101268.78;;;14.34;100.00
64827;BME280;51265;53.972;12.286;2023-06-22T00:37:57;101268.03;;;14.29;100.00
64827;BME280;51265;53.972;12.286;2023-06-22T00:40:32;101270.91;;;14.24;100.00
64827;BME280;51265;53.972;12.286;2023-06-22T00:42:59;101275.09;;;14.21;100.00
64827;BME280;51265;53.972;12.286;2023-06-22T00:45:26;101268.53;;;14.17;100.00
64827;BME280;51265;53.972;12.286;2023-06-22T00:47:53;101277.16;;;14.15;100.00
64827;BME280;51265;53.972;12.286;2023-06-22T00:50:22;101276.97;;;14.12;100.00
64827;BME280;51265;53.972;12.286;2023-06-22T00:52:53;101279.22;;;14.10;100.00
64827;BME280;51265;53.972;12.286;2023-06-22T00:55:23;101275.94;;;14.08;100.00
64827;BME280;51265;53.972;12.286;2023-06-22T00:57:49;101285.38;;;14.07;100.00
64827;BME280;51265;53.972;12.286;2023-06-22T01:00:16;101279.94;;;14.02;100.00
64827;BME280;51265;53.972;12.286;2023-06-22T01:02:46;101277.78;;;13.99;100.00
64827;BME280;51265;53.972;12.286;2023-06-22T01:05:13;101282.09;;;14.05;100.00
64827;BME280;51265;53.972;12.286;2023-06-22T01:10:49;101277.44;;;14.00;100.00
64827;BME280;51265;53.972;12.286;2023-06-22T01:16:20;101282.69;;;14.02;100.00
64827;BME280;51265;53.972;12.286;2023-06-22T01:18:51;101276.56;;;14.05;100.00
64827;BME280;51265;53.972;12.286;2023-06-22T01:21:20;101285.38;;;14.07;100.00
64827;BME280;51265;53.972;12.286;2023-06-22T01:24:30;101283.72;;;14.06;100.00
64827;BME280;51265;53.972;12.286;2023-06-22T01:26:57;101287.63;;;14.05;100.00
64827;BME280;51265;53.972;12.286;2023-06-22T01:29:27;101288.25;;;14.02;100.00
64827;BME280;51265;53.972;12.286;2023-06-22T01:31:56;101273.88;;;14.00;100.00
64827;BME280;51265;53.972;12.286;2023-06-22T01:34:23;101270.81;;;14.01;100.00
64827;BME280;51265;53.972;12.286;2023-06-22T01:36:51;101274.91;;;14.04;100.00
64827;BME280;51265;53.972;12.286;2023-06-22T01:39:18;101285.06;;;14.08;100.00
64827;BME280;51265;53.972;12.286;2023-06-22T01:41:47;101291.63;;;14.12;100.00
64827;BME280;51265;53.972;12.286;2023-06-22T01:44:15;101290.81;;;14.12;100.00
64827;BME280;51265;53.972;12.286;2023-06-22T01:46:41;101294.09;;;14.14;100.00
64827;BME280;51265;53.972;12.286;2023-06-22T01:49:08;101287.44;;;14.15;100.00
64827;BME280;51265;53.972;12.286;2023-06-22T01:51:36;101292.16;;;14.14;100.00
64827;BME280;51265;53.972;12.286;2023-06-22T01:54:02;101292.75;;;14.11;100.00
64827;BME280;51265;53.972;12.286;2023-06-22T01:56:29;101291.94;;;14.11;100.00
64827;BME280;51265;53.972;12.286;2023-06-22T01:59:15;101281.06;;;14.14;100.00
64827;BME280;51265;53.972;12.286;2023-06-22T02:01:50;101284.56;;;14.20;100.00
64827;BME280;51265;53.972;12.286;2023-06-22T02:04:27;101280.03;;;14.10;100.00
64827;BME280;51265;53.972;12.286;2023-06-22T02:06:58;101283.31;;;13.99;100.00
64827;BME280;51265;53.972;12.286;2023-06-22T02:09:28;101291.28;;;13.86;100.00
64827;BME280;51265;53.972;12.286;2023-06-22T02:11:56;101287.38;;;13.87;100.00
64827;BME280;51265;53.972;12.286;2023-06-22T02:14:24;101295.00;;;13.95;100.00
64827;BME280;51265;53.972;12.286;2023-06-22T02:16:51;101301.56;;;14.00;100.00
64827;BME280;51265;53.972;12.286;2023-06-22T02:19:22;101291.84;;;14.02;100.00
64827;BME280;51265;53.972;12.286;2023-06-22T02:22:10;101304.03;;;14.01;100.00
64827;BME280;51265;53.972;12.286;2023-06-22T02:24:36;101293.78;;;14.02;100.00
64827;BME280;51265;53.972;12.286;2023-06-22T02:27:03;101295.41;;;14.03;100.00
64827;BME280;51265;53.972;12.286;2023-06-22T02:29:32;101295.41;;;14.03;100.00
64827;BME280;51265;53.972;12.286;2023-06-22T02:31:58;101300.97;;;14.03;100.00
64827;BME280;51265;53.972;12.286;2023-06-22T02:34:25;101316.44;;;14.04;100.00
64827;BME280;51265;53.972;12.286;2023-06-22T02:36:51;101308.66;;;14.06;100.00
64827;BME280;51265;53.972;12.286;2023-06-22T02:39:19;101313.06;;;14.07;100.00
64827;BME280;51265;53.972;12.286;2023-06-22T02:41:45;101325.56;;;14.04;100.00
64827;BME280;51265;53.972;12.286;2023-06-22T02:44:11;101321.16;;;14.03;100.00
64827;BME280;51265;53.972;12.286;2023-06-22T02:46:37;101316.97;;;14.06;100.00
64827;BME280;51265;53.972;12.286;2023-06-22T02:49:04;101321.06;;;14.08;100.00
64827;BME280;51265;53.972;12.286;2023-06-22T02:51:33;101319.63;;;14.11;100.00
64827;BME280;51265;53.972;12.286;2023-06-22T02:54:00;101315.94;;;14.15;100.00
64827;BME280;51265;53.972;12.286;2023-06-22T02:56:28;101319.16;;;14.23;100.00
64827;BME280;51265;53.972;12.286;2023-06-22T02:58:58;101325.41;;;14.28;100.00
64827;BME280;51265;53.972;12.286;2023-06-22T03:01:34;101319.75;;;14.33;100.00
64827;BME280;51265;53.972;12.286;2023-06-22T03:04:23;101330.13;;;14.41;100.00
64827;BME280;51265;53.972;12.286;2023-06-22T03:06:49;101320.06;;;14.45;100.00
64827;BME280;51265;53.972;12.286;2023-06-22T03:09:17;101325.03;;;14.49;100.00
64827;BME280;51265;53.972;12.286;2023-06-22T03:11:43;101325.44;;;14.56;100.00
64827;BME280;51265;53.972;12.286;2023-06-22T03:14:09;101330.19;;;14.55;100.00
64827;BME280;51265;53.972;12.286;2023-06-22T03:16:36;101320.50;;;14.53;100.00
64827;BME280;51265;53.972;12.286;2023-06-22T03:19:02;101315.59;;;14.50;100.00
64827;BME280;51265;53.972;12.286;2023-06-22T03:21:29;101318.22;;;14.41;100.00
64827;BME280;51265;53.972;12.286;2023-06-22T03:23:55;101315.56;;;14.36;100.00
64827;BME280;51265;53.972;12.286;2023-06-22T03:26:22;101307.84;;;14.33;100.00
64827;BME280;51265;53.972;12.286;2023-06-22T03:28:49;101304.25;;;14.32;100.00
64827;BME280;51265;53.972;12.286;2023-06-22T03:31:15;101303.13;;;14.33;100.00
64827;BME280;51265;53.972;12.286;2023-06-22T03:33:42;101302.03;;;14.34;100.00
64827;BME280;51265;53.972;12.286;2023-06-22T03:36:08;101297.50;;;14.38;100.00
64827;BME280;51265;53.972;12.286;2023-06-22T03:38:34;101298.53;;;14.42;100.00
64827;BME280;51265;53.972;12.286;2023-06-22T03:41:01;101308.16;;;14.45;100.00
64827;BME280;51265;53.972;12.286;2023-06-22T03:43:29;101304.78;;;14.48;100.00
64827;BME280;51265;53.972;12.286;2023-06-22T03:45:56;101306.16;;;14.51;100.00
64827;BME280;51265;53.972;12.286;2023-06-22T03:48:22;101319.25;;;14.59;100.00
64827;BME280;51265;53.972;12.286;2023-06-22T03:50:48;101313.31;;;14.65;100.00
64827;BME280;51265;53.972;12.286;2023-06-22T03:53:14;101314.56;;;14.73;100.00
64827;BME280;51265;53.972;12.286;2023-06-22T03:55:48;101318.84;;;14.79;100.00
64827;BME280;51265;53.972;12.286;2023-06-22T03:58:15;101315.97;;;14.84;100.00
64827;BME280;51265;53.972;12.286;2023-06-22T04:00:41;101327.25;;;14.88;100.00
64827;BME280;51265;53.972;12.286;2023-06-22T04:03:08;101325.19;;;14.93;100.00
64827;BME280;51265;53.972;12.286;2023-06-22T04:05:34;101327.25;;;15.02;100.00
64827;BME280;51265;53.972;12.286;2023-06-22T04:08:00;101333.06;;;15.14;100.00
64827;BME280;51265;53.972;12.286;2023-06-22T04:10:26;101334.97;;;15.27;100.00
64827;BME280;51265;53.972;12.286;2023-06-22T04:12:52;101324.59;;;15.55;100.00
64827;BME280;51265;53.972;12.286;2023-06-22T04:15:19;101320.78;;;15.65;100.00
64827;BME280;51265;53.972;12.286;2023-06-22T04:17:45;101323.53;;;15.65;100.00
64827;BME280;51265;53.972;12.286;2023-06-22T04:20:11;101318.59;;;15.62;100.00
64827;BME280;51265;53.972;12.286;2023-06-22T04:22:38;101316.94;;;15.61;100.00
64827;BME280;51265;53.972;12.286;2023-06-22T04:25:05;101310.25;;;15.62;100.00
64827;BME280;51265;53.972;12.286;2023-06-22T04:27:34;101320.44;;;15.66;100.00
64827;BME280;51265;53.972;12.286;2023-06-22T04:30:07;101320.97;;;15.68;100.00
64827;BME280;51265;53.972;12.286;2023-06-22T04:32:34;101311.69;;;15.73;100.00
64827;BME280;51265;53.972;12.286;2023-06-22T04:35:05;101319.72;;;15.83;100.00
64827;BME280;51265;53.972;12.286;2023-06-22T04:37:33;101327.88;;;16.02;100.00
64827;BME280;51265;53.972;12.286;2023-06-22T04:39:59;101320.94;;;16.22;100.00
64827;BME280;51265;53.972;12.286;2023-06-22T04:42:26;101325.91;;;16.42;100.00
64827;BME280;51265;53.972;12.286;2023-06-22T04:44:53;101320.13;;;16.70;100.00
64827;BME280;51265;53.972;12.286;2023-06-22T04:47:19;101321.69;;;16.93;100.00
64827;BME280;51265;53.972;12.286;2023-06-22T04:49:46;101317.59;;;17.17;100.00
64827;BME280;51265;53.972;12.286;2023-06-22T04:52:13;101325.47;;;17.32;100.00
64827;BME280;51265;53.972;12.286;2023-06-22T04:54:40;101315.31;;;17.36;100.00
64827;BME280;51265;53.972;12.286;2023-06-22T04:57:14;101307.16;;;17.14;100.00
64827;BME280;51265;53.972;12.286;2023-06-22T04:59:40;101306.47;;;17.00;100.00
64827;BME280;51265;53.972;12.286;2023-06-22T05:02:08;101310.53;;;16.85;100.00
64827;BME280;51265;53.972;12.286;2023-06-22T05:04:34;101301.50;;;16.79;100.00
64827;BME280;51265;53.972;12.286;2023-06-22T05:07:02;101299.50;;;16.71;100.00
64827;BME280;51265;53.972;12.286;2023-06-22T05:09:29;101304.97;;;16.76;100.00
64827;BME280;51265;53.972;12.286;2023-06-22T05:11:55;101307.75;;;16.85;100.00
64827;BME280;51265;53.972;12.286;2023-06-22T05:14:22;101317.09;;;16.98;100.00
64827;BME280;51265;53.972;12.286;2023-06-22T05:16:49;101308.44;;;17.25;100.00
64827;BME280;51265;53.972;12.286;2023-06-22T05:19:15;101313.34;;;17.46;100.00
64827;BME280;51265;53.972;12.286;2023-06-22T05:21:42;101301.72;;;17.52;100.00
64827;BME280;51265;53.972;12.286;2023-06-22T05:24:08;101305.75;;;17.72;100.00
64827;BME280;51265;53.972;12.286;2023-06-22T05:26:34;101292.81;;;17.94;100.00
64827;BME280;51265;53.972;12.286;2023-06-22T05:29:02;101296.06;;;18.04;100.00
64827;BME280;51265;53.972;12.286;2023-06-22T05:31:29;101288.19;;;18.06;100.00
64827;BME280;51265;53.972;12.286;2023-06-22T05:33:56;101281.13;;;18.09;100.00
64827;BME280;51265;53.972;12.286;2023-06-22T05:36:22;101292.25;;;18.09;100.00
64827;BME280;51265;53.972;12.286;2023-06-22T05:38:52;101296.22;;;18.08;100.00
64827;BME280;51265;53.972;12.286;2023-06-22T05:41:19;101290.31;;;18.01;100.00
64827;BME280;51265;53.972;12.286;2023-06-22T05:43:45;101294.09;;;18.05;100.00
64827;BME280;51265;53.972;12.286;2023-06-22T05:46:11;101296.34;;;18.20;100.00
64827;BME280;51265;53.972;12.286;2023-06-22T05:48:37;101302.38;;;18.22;100.00
64827;BME280;51265;53.972;12.286;2023-06-22T05:51:03;101297.25;;;18.33;100.00
64827;BME280;51265;53.972;12.286;2023-06-22T05:53:30;101303.56;;;18.51;100.00
64827;BME280;51265;53.972;12.286;2023-06-22T05:55:56;101297.78;;;18.56;100.00
64827;BME280;51265;53.972;12.286;2023-06-22T05:58:22;101294.31;;;18.59;100.00
64827;BME280;51265;53.972;12.286;2023-06-22T06:00:48;101295.97;;;18.60;100.00
64827;BME280;51265;53.972;12.286;2023-06-22T06:03:15;101303.19;;;18.61;100.00
64827;BME280;51265;53.972;12.286;2023-06-22T06:05:43;101301.75;;;18.84;100.00
64827;BME280;51265;53.972;12.286;2023-06-22T06:08:10;101300.41;;;18.90;100.00
64827;BME280;51265;53.972;12.286;2023-06-22T06:10:37;101286.91;;;18.92;100.00
64827;BME280;51265;53.972;12.286;2023-06-22T06:13:03;101279.25;;;19.10;100.00
64827;BME280;51265;53.972;12.286;2023-06-22T06:15:31;101276.03;;;19.21;100.00
64827;BME280;51265;53.972;12.286;2023-06-22T06:17:58;101273.44;;;19.36;98.93
64827;BME280;51265;53.972;12.286;2023-06-22T06:20:25;101270.03;;;19.31;99.74
64827;BME280;51265;53.972;12.286;2023-06-22T06:22:52;101282.03;;;19.31;100.00
64827;BME280;51265;53.972;12.286;2023-06-22T06:25:18;101278.06;;;19.32;100.00
64827;BME280;51265;53.972;12.286;2023-06-22T06:27:46;101275.34;;;19.45;100.00
64827;BME280;51265;53.972;12.286;2023-06-22T06:30:14;101263.91;;;19.37;99.44
64827;BME280;51265;53.972;12.286;2023-06-22T06:32:41;101269.03;;;19.48;99.79
64827;BME280;51265;53.972;12.286;2023-06-22T06:35:09;101260.47;;;19.53;98.94
64827;BME280;51265;53.972;12.286;2023-06-22T06:37:36;101241.69;;;19.41;94.14
64827;BME280;51265;53.972;12.286;2023-06-22T06:40:04;101248.75;;;19.38;93.94
64827;BME280;51265;53.972;12.286;2023-06-22T06:42:38;101253.00;;;19.45;94.07
64827;BME280;51265;53.972;12.286;2023-06-22T06:45:09;101266.97;;;19.78;94.54
64827;BME280;51265;53.972;12.286;2023-06-22T06:47:35;101246.88;;;20.21;91.87
64827;BME280;51265;53.972;12.286;2023-06-22T06:50:03;101235.22;;;20.19;88.90
64827;BME280;51265;53.972;12.286;2023-06-22T06:52:30;101219.56;;;19.94;86.94
64827;BME280;51265;53.972;12.286;2023-06-22T06:54:56;101236.16;;;20.11;87.51
64827;BME280;51265;53.972;12.286;2023-06-22T06:57:22;101240.09;;;20.47;86.97
64827;BME280;51265;53.972;12.286;2023-06-22T06:59:49;101233.94;;;20.41;85.55
64827;BME280;51265;53.972;12.286;2023-06-22T07:02:15;101238.59;;;20.61;85.07
64827;BME280;51265;53.972;12.286;2023-06-22T07:04:42;101201.75;;;20.35;80.98
64827;BME280;51265;53.972;12.286;2023-06-22T07:07:08;101188.50;;;20.20;78.78
64827;BME280;51265;53.972;12.286;2023-06-22T07:09:34;101197.09;;;20.14;79.84
64827;BME280;51265;53.972;12.286;2023-06-22T07:12:00;101196.06;;;20.19;80.02
64827;BME280;51265;53.972;12.286;2023-06-22T07:14:26;101165.16;;;20.40;76.03
64827;BME280;51265;53.972;12.286;2023-06-22T07:16:52;101167.13;;;20.52;75.71
64827;BME280;51265;53.972;12.286;2023-06-22T07:19:25;101159.53;;;20.64;73.80
64827;BME280;51265;53.972;12.286;2023-06-22T07:21:52;101162.28;;;20.77;74.61
64827;BME280;51265;53.972;12.286;2023-06-22T07:24:18;101168.59;;;21.02;73.83
64827;BME280;51265;53.972;12.286;2023-06-22T07:26:48;101145.09;;;20.91;72.06
64827;BME280;51265;53.972;12.286;2023-06-22T07:29:22;101150.88;;;20.98;71.92
64827;BME280;51265;53.972;12.286;2023-06-22T07:31:49;101151.41;;;20.87;72.12
64827;BME280;51265;53.972;12.286;2023-06-22T07:34:17;101144.19;;;20.86;71.13
64827;BME280;51265;53.972;12.286;2023-06-22T07:36:44;101156.84;;;21.24;70.97
64827;BME280;51265;53.972;12.286;2023-06-22T07:39:10;101173.13;;;21.78;71.05
64827;BME280;51265;53.972;12.286;2023-06-22T07:41:39;101161.06;;;22.25;69.59
64827;BME280;51265;53.972;12.286;2023-06-22T07:44:08;101101.91;;;21.99;65.30
64827;BME280;51265;53.972;12.286;2023-06-22T07:46:35;101099.94;;;21.83;65.28
64827;BME280;51265;53.972;12.286;2023-06-22T07:49:02;101118.06;;;22.05;66.22
64827;BME280;51265;53.972;12.286;2023-06-22T07:51:35;101138.59;;;22.09;66.63
64827;BME280;51265;53.972;12.286;2023-06-22T07:54:01;101129.78;;;22.43;65.98
64827;BME280;51265;53.972;12.286;2023-06-22T07:56:27;101140.31;;;23.04;66.86
64827;BME280;51265;53.972;12.286;2023-06-22T07:58:53;101100.09;;;22.80;64.15
64827;BME280;51265;53.972;12.286;2023-06-22T08:01:19;101102.75;;;22.93;63.83
64827;BME280;51265;53.972;12.286;2023-06-22T08:03:48;101073.44;;;22.71;61.34
64827;BME280;51265;53.972;12.286;2023-06-22T08:06:14;101071.13;;;22.37;61.96
64827;BME280;51265;53.972;12.286;2023-06-22T08:08:41;101073.06;;;22.33;62.12
64827;BME280;51265;53.972;12.286;2023-06-22T08:11:09;101070.09;;;22.65;61.67
64827;BME280;51265;53.972;12.286;2023-06-22T08:13:35;101075.19;;;22.79;61.15
64827;BME280;51265;53.972;12.286;2023-06-22T08:16:01;101074.00;;;22.60;61.90
64827;BME280;51265;53.972;12.286;2023-06-22T08:18:28;101085.84;;;22.50;62.89
64827;BME280;51265;53.972;12.286;2023-06-22T08:20:54;101068.09;;;22.46;61.40
64827;BME280;51265;53.972;12.286;2023-06-22T08:23:20;101059.19;;;22.41;61.39
64827;BME280;51265;53.972;12.286;2023-06-22T08:25:46;101088.44;;;22.78;62.18
64827;BME280;51265;53.972;12.286;2023-06-22T08:28:14;101115.44;;;23.25;62.62
64827;BME280;51265;53.972;12.286;2023-06-22T08:30:40;101119.81;;;23.92;61.72
64827;BME280;51265;53.972;12.286;2023-06-22T08:33:06;101116.13;;;24.74;60.21
64827;BME280;51265;53.972;12.286;2023-06-22T08:35:32;101097.59;;;25.44;58.18
64827;BME280;51265;53.972;12.286;2023-06-22T08:37:58;101061.47;;;25.61;56.41
64827;BME280;51265;53.972;12.286;2023-06-22T08:40:25;101036.81;;;25.06;56.11
64827;BME280;51265;53.972;12.286;2023-06-22T08:42:52;101057.25;;;24.02;57.60
64827;BME280;51265;53.972;12.286;2023-06-22T08:45:18;101076.03;;;24.24;58.21
64827;BME280;51265;53.972;12.286;2023-06-22T08:47:44;101064.72;;;24.17;57.00
64827;BME280;51265;53.972;12.286;2023-06-22T08:50:12;101076.94;;;24.02;58.22
64827;BME280;51265;53.972;12.286;2023-06-22T08:52:39;101073.69;;;23.73;57.95
64827;BME280;51265;53.972;12.286;2023-06-22T08:55:08;101070.69;;;23.40;58.05
64827;BME280;51265;53.972;12.286;2023-06-22T08:57:35;101077.44;;;23.58;58.00
64827;BME280;51265;53.972;12.286;2023-06-22T09:00:07;101069.03;;;23.58;57.14
64827;BME280;51265;53.972;12.286;2023-06-22T09:02:44;101067.66;;;23.25;57.98
64827;BME280;51265;53.972;12.286;2023-06-22T09:05:10;101071.84;;;23.12;58.09
64827;BME280;51265;53.972;12.286;2023-06-22T09:07:37;101090.75;;;23.15;58.62
64827;BME280;51265;53.972;12.286;2023-06-22T09:10:04;101084.56;;;23.06;58.55
64827;BME280;51265;53.972;12.286;2023-06-22T09:12:30;101086.94;;;23.50;58.31
64827;BME280;51265;53.972;12.286;2023-06-22T09:14:59;101102.81;;;23.84;58.27
64827;BME280;51265;53.972;12.286;2023-06-22T09:17:29;101075.16;;;24.17;56.70
64827;BME280;51265;53.972;12.286;2023-06-22T09:19:55;101071.25;;;24.25;56.46
64827;BME280;51265;53.972;12.286;2023-06-22T09:22:21;101053.06;;;24.49;54.91
64827;BME280;51265;53.972;12.286;2023-06-22T09:24:47;101068.25;;;24.74;54.84
64827;BME280;51265;53.972;12.286;2023-06-22T09:27:13;101109.38;;;25.16;56.69
64827;BME280;51265;53.972;12.286;2023-06-22T09:29:40;101100.03;;;25.94;54.70
64827;BME280;51265;53.972;12.286;2023-06-22T09:32:06;101081.81;;;26.50;53.47
64827;BME280;51265;53.972;12.286;2023-06-22T09:34:32;101033.25;;;26.19;50.73
64827;BME280;51265;53.972;12.286;2023-06-22T09:36:59;101011.25;;;25.25;52.18
64827;BME280;51265;53.972;12.286;2023-06-22T09:39:26;101050.50;;;25.07;54.62
64827;BME280;51265;53.972;12.286;2023-06-22T09:41:52;101038.81;;;24.68;54.97
64827;BME280;51265;53.972;12.286;2023-06-22T09:44:19;101038.34;;;24.29;54.98
64827;BME280;51265;53.972;12.286;2023-06-22T09:46:45;101067.06;;;24.42;55.73
64827;BME280;51265;53.972;12.286;2023-06-22T09:49:11;101067.25;;;24.56;55.39
64827;BME280;51265;53.972;12.286;2023-06-22T09:51:37;101076.53;;;24.60;55.54
64827;BME280;51265;53.972;12.286;2023-06-22T09:54:03;101091.63;;;25.08;54.88
64827;BME280;51265;53.972;12.286;2023-06-22T09:56:30;101111.28;;;25.42;56.21
64827;BME280;51265;53.972;12.286;2023-06-22T09:58:56;101071.25;;;24.89;54.74
64827;BME280;51265;53.972;12.286;2023-06-22T10:01:22;101100.38;;;25.03;56.16
64827;BME280;51265;53.972;12.286;2023-06-22T10:03:49;101106.69;;;25.27;55.85
64827;BME280;51265;53.972;12.286;2023-06-22T10:06:16;101087.69;;;25.17;55.04
64827;BME280;51265;53.972;12.286;2023-06-22T10:08:43;101098.09;;;25.57;55.16
64827;BME280;51265;53.972;12.286;2023-06-22T10:11:09;101095.75;;;25.66;55.65
64827;BME280;51265;53.972;12.286;2023-06-22T10:13:35;101082.34;;;25.52;55.12
64827;BME280;51265;53.972;12.286;2023-06-22T10:16:01;101101.63;;;25.88;55.45
64827;BME280;51265;53.972;12.286;2023-06-22T10:18:27;101115.81;;;26.02;56.18
64827;BME280;51265;53.972;12.286;2023-06-22T10:20:54;101095.09;;;26.46;54.31
64827;BME280;51265;53.972;12.286;2023-06-22T10:23:20;101108.63;;;26.95;54.42
64827;BME280;51265;53.972;12.286;2023-06-22T10:25:47;101088.94;;;27.56;53.04
64827;BME280;51265;53.972;12.286;2023-06-22T10:28:13;101066.28;;;27.95;50.95
64827;BME280;51265;53.972;12.286;2023-06-22T10:30:40;101065.09;;;27.86;51.85
64827;BME280;51265;53.972;12.286;2023-06-22T10:33:10;101062.97;;;28.25;51.16
64827;BME280;51265;53.972;12.286;2023-06-22T10:35:37;101055.38;;;27.87;52.24
64827;BME280;51265;53.972;12.286;2023-06-22T10:38:04;101031.09;;;28.00;50.88
64827;BME280;51265;53.972;12.286;2023-06-22T10:40:30;101018.63;;;27.40;51.19
64827;BME280;51265;53.972;12.286;2023-06-22T10:42:56;101055.00;;;27.27;52.84
64827;BME280;51265;53.972;12.286;2023-06-22T10:45:23;101061.44;;;27.96;51.61
64827;BME280;51265;53.972;12.286;2023-06-22T10:47:49;101049.16;;;28.49;50.39
64827;BME280;51265;53.972;12.286;2023-06-22T10:50:15;101004.03;;;27.92;49.46
64827;BME280;51265;53.972;12.286;2023-06-22T10:52:42;101033.19;;;27.31;51.92
64827;BME280;51265;53.972;12.286;2023-06-22T10:55:09;101024.28;;;27.19;51.49
64827;BME280;51265;53.972;12.286;2023-06-22T10:57:35;101038.84;;;27.17;51.92
64827;BME280;51265;53.972;12.286;2023-06-22T11:00:03;101066.28;;;27.88;51.67
64827;BME280;51265;53.972;12.286;2023-06-22T11:02:31;101064.13;;;28.49;51.23
64827;BME280;51265;53.972;12.286;2023-06-22T11:04:57;101039.00;;;29.25;48.98
64827;BME280;51265;53.972;12.286;2023-06-22T11:07:26;100996.25;;;28.94;48.28
64827;BME280;51265;53.972;12.286;2023-06-22T11:09:55;100990.34;;;28.71;48.11
64827;BME280;51265;53.972;12.286;2023-06-22T11:12:21;100983.56;;;28.54;48.18
64827;BME280;51265;53.972;12.286;2023-06-22T11:14:47;100977.31;;;28.03;48.92
64827;BME280;51265;53.972;12.286;2023-06-22T11:17:13;101015.91;;;28.60;49.32
64827;BME280;51265;53.972;12.286;2023-06-22T11:19:39;101002.13;;;28.66;48.88
64827;BME280;51265;53.972;12.286;2023-06-22T11:22:05;100991.06;;;28.05;49.53
64827;BME280;51265;53.972;12.286;2023-06-22T11:24:32;101025.78;;;28.23;50.20
64827;BME280;51265;53.972;12.286;2023-06-22T11:26:58;101044.31;;;28.46;50.22
64827;BME280;51265;53.972;12.286;2023-06-22T11:29:24;101001.63;;;27.62;49.95
64827;BME280;51265;53.972;12.286;2023-06-22T11:31:50;101016.63;;;27.44;50.95
64827;BME280;51265;53.972;12.286;2023-06-22T11:34:17;101018.22;;;27.42;50.76
64827;BME280;51265;53.972;12.286;2023-06-22T11:36:43;101035.56;;;27.01;52.30
64827;BME280;51265;53.972;12.286;2023-06-22T11:39:10;101051.09;;;26.41;53.19
64827;BME280;51265;53.972;12.286;2023-06-22T11:41:36;101068.16;;;26.66;53.68
64827;BME280;51265;53.972;12.286;2023-06-22T11:44:03;101062.00;;;26.43;54.26
64827;BME280;51265;53.972;12.286;2023-06-22T11:46:30;101066.78;;;26.31;54.54
64827;BME280;51265;53.972;12.286;2023-06-22T11:48:57;101083.13;;;26.74;54.83
64827;BME280;51265;53.972;12.286;2023-06-22T11:51:24;101105.84;;;28.42;52.93
64827;BME280;51265;53.972;12.286;2023-06-22T11:53:50;101069.81;;;30.16;48.68
64827;BME280;51265;53.972;12.286;2023-06-22T11:56:16;101027.88;;;29.90;47.57
64827;BME280;51265;53.972;12.286;2023-06-22T11:58:42;100976.31;;;28.49;48.14
64827;BME280;51265;53.972;12.286;2023-06-22T12:01:08;101004.00;;;27.99;50.43
64827;BME280;51265;53.972;12.286;2023-06-22T12:03:34;101000.00;;;27.93;50.31
64827;BME280;51265;53.972;12.286;2023-06-22T12:06:01;100987.84;;;27.92;49.70
64827;BME280;51265;53.972;12.286;2023-06-22T12:08:27;101020.91;;;29.04;49.24
64827;BME280;51265;53.972;12.286;2023-06-22T12:10:53;101021.72;;;29.57;48.48
64827;BME280;51265;53.972;12.286;2023-06-22T12:13:21;100964.50;;;29.17;46.90
64827;BME280;51265;53.972;12.286;2023-06-22T12:15:47;100989.22;;;29.65;47.26
64827;BME280;51265;53.972;12.286;2023-06-22T12:18:13;100986.28;;;30.71;46.00
64827;BME280;51265;53.972;12.286;2023-06-22T12:20:42;100971.09;;;31.56;44.77
64827;BME280;51265;53.972;12.286;2023-06-22T12:23:08;100968.47;;;32.08;44.08
64827;BME280;51265;53.972;12.286;2023-06-22T12:25:35;100919.34;;;31.41;43.37
64827;BME280;51265;53.972;12.286;2023-06-22T12:28:01;100943.03;;;30.30;45.86
64827;BME280;51265;53.972;12.286;2023-06-22T12:30:27;100923.28;;;29.85;45.67
64827;BME280;51265;53.972;12.286;2023-06-22T12:32:53;100911.50;;;28.55;47.55
64827;BME280;51265;53.972;12.286;2023-06-22T12:35:19;100923.22;;;27.76;48.58
64827;BME280;51265;53.972;12.286;2023-06-22T12:37:46;100940.16;;;27.84;49.14
64827;BME280;51265;53.972;12.286;2023-06-22T12:40:12;100979.66;;;28.26;48.99
64827;BME280;51265;53.972;12.286;2023-06-22T12:42:38;100953.75;;;28.21;47.84